Time;durP1;ratioP1;P1;durP2;ratioP2;P2;SDS_P1;SDS_P2;PMS_P1;PMS_P2;Temp;Humidity;BMP_temperature;BMP_pressure;BME280_temperature;BME280_humidity;BME280_pressure;Samples;Min_cycle;Max_cycle;Signal;HPM_P1;HPM_P2
2022/10/16 00:00:31;;;;;;;17.80;15.70;;;16.50;1.00;;;;;;5048181;28;20429;-58
2022/10/16 00:02:56;;;;;;;19.27;17.17;;;16.50;1.00;;;;;;5050827;28;20424;-57
2022/10/16 00:05:22;;;;;;;19.90;17.10;;;16.50;1.00;;;;;;5053836;28;20191;-57
2022/10/16 00:07:48;;;;;;;19.70;15.70;;;16.40;1.00;;;;;;5051275;28;20270;-57
2022/10/16 00:10:13;;;;;;;18.40;16.37;;;16.40;1.00;;;;;;5053411;28;20270;-59
2022/10/16 00:12:39;;;;;;;19.27;15.30;;;16.40;1.00;;;;;;5050756;28;20189;-58
2022/10/16 00:15:05;;;;;;;19.80;15.40;;;16.40;1.00;;;;;;5050334;28;20219;-57
2022/10/16 00:17:31;;;;;;;17.83;14.87;;;16.40;1.00;;;;;;5050283;28;20278;-57
2022/10/16 00:19:57;;;;;;;16.37;14.63;;;16.40;1.00;;;;;;5050866;28;20492;-58
2022/10/16 00:22:23;;;;;;;18.50;16.60;;;16.30;1.00;;;;;;5052338;28;20899;-57
2022/10/16 00:24:49;;;;;;;17.27;15.40;;;16.30;1.00;;;;;;5048908;28;20512;-57
2022/10/16 00:27:15;;;;;;;18.87;16.30;;;16.30;1.00;;;;;;5051560;28;20690;-57
2022/10/16 00:29:40;;;;;;;20.13;18.03;;;16.30;1.00;;;;;;5052382;28;20523;-58
2022/10/16 00:32:06;;;;;;;17.50;15.60;;;16.20;1.00;;;;;;5052645;28;20192;-57
2022/10/16 00:34:31;;;;;;;20.57;17.03;;;16.20;1.00;;;;;;5053309;28;20711;-57
2022/10/16 00:36:57;;;;;;;20.40;17.70;;;16.20;1.00;;;;;;5052664;28;20195;-56
2022/10/16 00:39:23;;;;;;;19.20;16.23;;;16.20;1.00;;;;;;5051217;28;20705;-57
2022/10/16 00:41:49;;;;;;;17.77;15.93;;;16.20;1.00;;;;;;5052620;28;20739;-58
2022/10/16 00:44:45;;;;;;;16.73;14.93;;;16.10;1.00;;;;;;5045422;28;20562;-57
2022/10/16 00:47:15;;;;;;;18.00;15.60;;;16.10;1.00;;;;;;5048229;28;20217;-57
2022/10/16 00:49:41;;;;;;;16.03;14.43;;;16.10;1.00;;;;;;5051372;28;20449;-58
2022/10/16 00:52:07;;;;;;;17.60;15.80;;;16.10;1.00;;;;;;5051146;28;20512;-58
2022/10/16 00:54:33;;;;;;;16.87;15.10;;;16.10;1.00;;;;;;5052264;28;20612;-57
2022/10/16 00:57:04;;;;;;;17.10;15.13;;;16.10;1.00;;;;;;5044221;28;20755;-56
2022/10/16 00:59:39;;;;;;;17.40;14.83;;;16.20;1.00;;;;;;5052725;28;20680;-56
2022/10/16 01:02:08;;;;;;;15.23;13.63;;;16.30;1.00;;;;;;5048527;28;20453;-58
2022/10/16 01:04:47;;;;;;;17.00;14.83;;;16.30;1.00;;;;;;5052546;28;20424;-57
2022/10/16 01:07:30;;;;;;;16.67;14.83;;;16.40;1.00;;;;;;5050646;28;20999;-58
2022/10/16 01:10:25;;;;;;;16.27;14.50;;;16.40;1.00;;;;;;5045598;28;20434;-58
2022/10/16 01:13:17;;;;;;;15.87;14.37;;;16.50;1.00;;;;;;5049793;28;20768;-58
2022/10/16 01:15:45;;;;;;;17.57;14.80;;;16.50;1.00;;;;;;5052290;28;20896;-56
2022/10/16 01:18:29;;;;;;;16.73;14.87;;;16.70;1.00;;;;;;5049604;28;20443;-57
2022/10/16 01:21:03;;;;;;;15.77;13.77;;;16.70;1.00;;;;;;5057010;28;20433;-57
2022/10/16 01:23:56;;;;;;;15.67;14.00;;;16.70;1.00;;;;;;5051036;28;20953;-57
2022/10/16 01:26:35;;;;;;;15.83;13.90;;;16.70;1.00;;;;;;5049194;28;20797;-56
2022/10/16 01:29:20;;;;;;;15.60;13.73;;;16.80;1.00;;;;;;5045384;28;20469;-58
2022/10/16 01:31:53;;;;;;;14.90;13.27;;;16.90;1.00;;;;;;5049965;28;20544;-57
2022/10/16 01:34:28;;;;;;;15.60;13.93;;;16.90;1.00;;;;;;5050104;28;20514;-56
2022/10/16 01:37:01;;;;;;;14.47;13.10;;;16.90;1.00;;;;;;5049298;28;20531;-57
2022/10/16 01:39:32;;;;;;;15.17;13.60;;;16.90;1.00;;;;;;5049385;28;20437;-57
2022/10/16 01:42:12;;;;;;;16.47;13.63;;;17.00;1.00;;;;;;5046757;28;20416;-57
2022/10/16 01:44:39;;;;;;;15.90;14.17;;;17.00;1.00;;;;;;5047206;28;20448;-58
2022/10/16 01:47:06;;;;;;;15.20;13.70;;;17.10;1.00;;;;;;5050605;28;20803;-58
2022/10/16 01:49:35;;;;;;;17.33;13.00;;;17.00;1.00;;;;;;5051878;28;20414;-57
2022/10/16 01:52:04;;;;;;;15.87;14.30;;;17.10;1.00;;;;;;5051113;28;20920;-58
2022/10/16 01:54:32;;;;;;;15.60;13.33;;;17.00;1.00;;;;;;5048207;28;20525;-58
2022/10/16 01:56:58;;;;;;;15.50;14.00;;;17.00;1.00;;;;;;5046483;28;20435;-58
2022/10/16 01:59:28;;;;;;;14.97;13.57;;;17.10;1.00;;;;;;5047041;28;20506;-57
2022/10/16 02:01:59;;;;;;;16.17;14.37;;;17.10;1.00;;;;;;5048633;28;20414;-57
2022/10/16 02:04:34;;;;;;;15.77;14.27;;;17.10;1.00;;;;;;5050635;28;20445;-58
2022/10/16 02:07:00;;;;;;;15.83;14.23;;;17.10;1.00;;;;;;5049285;28;20435;-57
2022/10/16 02:09:26;;;;;;;16.10;13.43;;;17.10;1.00;;;;;;5051741;28;22079;-57
2022/10/16 02:11:59;;;;;;;16.80;14.37;;;17.00;1.00;;;;;;5049785;28;20450;-58
2022/10/16 02:14:25;;;;;;;15.63;14.10;;;17.00;1.00;;;;;;5047190;28;20523;-57
2022/10/16 02:16:50;;;;;;;16.37;14.70;;;17.00;1.00;;;;;;5048294;28;20451;-57
2022/10/16 02:19:19;;;;;;;17.30;15.50;;;17.20;1.00;;;;;;5050764;28;20501;-57
2022/10/16 02:22:02;;;;;;;19.10;17.10;;;17.40;1.00;;;;;;5046549;28;20706;-58
2022/10/16 02:24:47;;;;;;;18.30;16.30;;;17.20;1.00;;;;;;5049610;28;20453;-57
2022/10/16 02:27:38;;;;;;;17.20;15.43;;;17.20;1.00;;;;;;5049046;28;20445;-57
2022/10/16 02:30:30;;;;;;;17.57;15.77;;;17.20;1.00;;;;;;5050854;28;20465;-57
2022/10/16 02:32:57;;;;;;;17.90;16.00;;;17.20;1.00;;;;;;5055157;28;20535;-58
2022/10/16 02:35:24;;;;;;;16.93;15.23;;;17.20;1.00;;;;;;5051781;28;20774;-57
2022/10/16 02:37:50;;;;;;;16.90;15.00;;;17.20;1.00;;;;;;5047715;28;20424;-58
2022/10/16 02:40:17;;;;;;;17.40;15.60;;;17.20;1.00;;;;;;5050412;28;20884;-58
2022/10/16 02:42:43;;;;;;;18.20;16.23;;;17.20;1.00;;;;;;5056919;28;20444;-58
2022/10/16 02:45:10;;;;;;;20.90;16.33;;;17.20;1.00;;;;;;5056266;28;20473;-57
2022/10/16 02:47:36;;;;;;;17.73;15.93;;;17.30;1.00;;;;;;5050237;28;20269;-57
2022/10/16 02:50:01;;;;;;;18.07;14.67;;;17.30;1.00;;;;;;5047282;28;20456;-57
2022/10/16 02:52:27;;;;;;;17.60;15.73;;;17.20;1.00;;;;;;5047749;28;20719;-58
2022/10/16 02:54:52;;;;;;;16.73;15.13;;;17.30;1.00;;;;;;5048126;28;20215;-58
2022/10/16 02:57:18;;;;;;;17.23;15.43;;;17.30;1.00;;;;;;5048113;28;20659;-58
2022/10/16 02:59:45;;;;;;;16.87;15.17;;;17.30;1.00;;;;;;5049722;28;20259;-58
2022/10/16 03:02:11;;;;;;;17.37;15.70;;;17.20;1.00;;;;;;5047565;28;20430;-58
2022/10/16 03:04:37;;;;;;;16.93;15.27;;;17.20;1.00;;;;;;5049143;28;20554;-57
2022/10/16 03:07:02;;;;;;;15.93;14.33;;;17.30;1.00;;;;;;5048661;28;20542;-58
2022/10/16 03:09:28;;;;;;;17.20;15.40;;;17.30;1.00;;;;;;5050863;28;20264;-57
2022/10/16 03:11:54;;;;;;;16.33;14.73;;;17.30;1.00;;;;;;5049350;28;20185;-58
2022/10/16 03:14:19;;;;;;;16.37;14.87;;;17.30;1.00;;;;;;5049335;28;20211;-58
2022/10/16 03:16:45;;;;;;;17.33;15.63;;;17.20;1.00;;;;;;5046473;28;20681;-58
2022/10/16 03:19:10;;;;;;;18.43;14.70;;;17.10;1.00;;;;;;5048690;28;20206;-57
2022/10/16 03:21:36;;;;;;;16.63;14.13;;;17.10;1.00;;;;;;5046244;28;20279;-57
2022/10/16 03:24:02;;;;;;;17.80;16.00;;;17.10;1.00;;;;;;5046837;28;20195;-56
2022/10/16 03:26:27;;;;;;;16.57;14.97;;;17.00;1.00;;;;;;5047251;28;20199;-58
2022/10/16 03:28:53;;;;;;;17.03;15.43;;;17.00;1.00;;;;;;5044955;28;20291;-57
2022/10/16 03:31:18;;;;;;;17.97;16.17;;;16.90;1.00;;;;;;5044027;28;20248;-58
2022/10/16 03:33:44;;;;;;;16.17;14.60;;;16.90;1.00;;;;;;5051851;28;20531;-58
2022/10/16 03:36:10;;;;;;;16.27;14.60;;;16.80;1.00;;;;;;5070346;28;20190;-57
2022/10/16 03:38:35;;;;;;;17.47;15.77;;;16.80;1.00;;;;;;5049620;28;20269;-58
2022/10/16 03:41:01;;;;;;;17.10;15.30;;;16.70;1.00;;;;;;5046599;28;20194;-57
2022/10/16 03:43:26;;;;;;;17.10;15.40;;;16.80;1.00;;;;;;5046907;28;20242;-58
2022/10/16 03:45:52;;;;;;;16.27;14.60;;;16.70;1.00;;;;;;5045784;28;20186;-57
2022/10/16 03:48:18;;;;;;;16.00;14.40;;;16.80;1.00;;;;;;5048640;28;20191;-58
2022/10/16 03:50:44;;;;;;;15.93;14.23;;;16.70;1.00;;;;;;5047980;28;20564;-58
2022/10/16 03:53:09;;;;;;;16.90;15.20;;;16.70;1.00;;;;;;5048736;28;20449;-57
2022/10/16 03:55:35;;;;;;;17.37;15.40;;;16.70;1.00;;;;;;5049774;28;20191;-57
2022/10/16 03:58:01;;;;;;;17.97;16.17;;;16.80;1.00;;;;;;5046054;28;20250;-58
2022/10/16 04:00:27;;;;;;;17.00;15.20;;;16.70;1.00;;;;;;5049579;28;20465;-58
2022/10/16 04:02:53;;;;;;;17.13;15.33;;;16.60;1.00;;;;;;5048615;28;20715;-59
2022/10/16 04:05:18;;;;;;;16.30;14.73;;;16.60;1.00;;;;;;5046517;28;20464;-59
2022/10/16 04:07:44;;;;;;;18.67;16.60;;;16.70;1.00;;;;;;5048779;28;20206;-58
2022/10/16 04:10:10;;;;;;;16.60;15.00;;;16.60;1.00;;;;;;5047382;28;20209;-58
2022/10/16 04:12:35;;;;;;;16.57;14.97;;;16.60;1.00;;;;;;5042116;28;20273;-58
2022/10/16 04:15:01;;;;;;;17.30;15.60;;;16.70;1.00;;;;;;5046914;28;20191;-58
2022/10/16 04:17:27;;;;;;;19.57;17.57;;;16.70;1.00;;;;;;5048318;28;20720;-58
2022/10/16 04:19:53;;;;;;;18.37;16.23;;;16.80;1.00;;;;;;5048863;28;20482;-58
2022/10/16 04:22:18;;;;;;;18.37;16.47;;;16.80;1.00;;;;;;5046641;28;20204;-58
2022/10/16 04:24:44;;;;;;;22.20;16.80;;;16.70;1.00;;;;;;5052123;28;20192;-58
2022/10/16 04:27:09;;;;;;;18.93;16.83;;;16.70;1.00;;;;;;5050379;28;20188;-58
2022/10/16 04:29:35;;;;;;;19.67;17.70;;;16.80;1.00;;;;;;5049858;28;20187;-57
2022/10/16 04:32:00;;;;;;;18.03;16.23;;;16.80;1.00;;;;;;5050256;28;20183;-56
2022/10/16 04:34:26;;;;;;;18.23;16.43;;;16.80;1.00;;;;;;5050321;28;20183;-58
2022/10/16 04:36:52;;;;;;;18.00;16.10;;;16.90;1.00;;;;;;5055702;28;20194;-59
2022/10/16 04:39:18;;;;;;;18.73;16.93;;;16.80;1.00;;;;;;5049625;28;20288;-58
2022/10/16 04:41:43;;;;;;;17.50;15.80;;;16.80;1.00;;;;;;5049503;28;20200;-58
2022/10/16 04:44:09;;;;;;;17.73;15.90;;;16.80;1.00;;;;;;5049988;28;20450;-56
2022/10/16 04:46:34;;;;;;;17.10;15.43;;;16.80;1.00;;;;;;5051969;28;20229;-58
2022/10/16 04:49:00;;;;;;;17.20;15.40;;;16.80;1.00;;;;;;5051236;28;20193;-56
2022/10/16 04:51:27;;;;;;;17.17;15.33;;;16.70;1.00;;;;;;5052719;28;20668;-57
2022/10/16 04:53:53;;;;;;;22.70;16.20;;;16.70;1.00;;;;;;5050099;28;20246;-57
2022/10/16 04:56:18;;;;;;;18.73;16.70;;;16.70;1.00;;;;;;5053487;28;20408;-57
2022/10/16 04:58:44;;;;;;;19.10;17.10;;;16.60;1.00;;;;;;5049671;28;20580;-58
2022/10/16 05:01:09;;;;;;;18.00;16.20;;;16.80;1.00;;;;;;5050036;28;20232;-58
2022/10/16 05:03:35;;;;;;;17.30;15.63;;;16.80;1.00;;;;;;5051258;28;20191;-58
2022/10/16 05:06:00;;;;;;;18.30;16.00;;;16.70;1.00;;;;;;5050174;28;20246;-61
2022/10/16 05:08:26;;;;;;;18.77;16.93;;;16.70;1.00;;;;;;5049045;28;20238;-58
2022/10/16 05:10:51;;;;;;;17.97;16.17;;;16.70;1.00;;;;;;5049731;28;20189;-57
2022/10/16 05:13:17;;;;;;;19.43;17.17;;;16.80;1.00;;;;;;5047886;28;20279;-56
2022/10/16 05:15:48;;;;;;;17.83;16.03;;;16.80;1.00;;;;;;5049557;28;20365;-57
2022/10/16 05:18:13;;;;;;;17.33;15.70;;;16.80;1.00;;;;;;5049316;28;20589;-58
2022/10/16 05:20:39;;;;;;;17.40;15.60;;;16.80;1.00;;;;;;5050674;28;20517;-57
2022/10/16 05:23:04;;;;;;;17.40;15.70;;;16.80;1.00;;;;;;5051716;28;20683;-57
2022/10/16 05:25:30;;;;;;;16.13;14.63;;;16.70;1.00;;;;;;5051976;28;20195;-57
2022/10/16 05:27:55;;;;;;;16.70;15.00;;;16.70;1.00;;;;;;5050831;28;20276;-58
2022/10/16 05:30:21;;;;;;;16.07;14.47;;;16.70;1.00;;;;;;5048549;28;20181;-58
2022/10/16 05:32:48;;;;;;;17.03;15.30;;;16.70;1.00;;;;;;5049129;28;20216;-57
2022/10/16 05:35:14;;;;;;;18.50;16.20;;;16.80;1.00;;;;;;5048869;28;20185;-57
2022/10/16 05:37:40;;;;;;;17.37;15.63;;;16.80;1.00;;;;;;5045662;28;20489;-57
2022/10/16 05:40:06;;;;;;;16.50;14.83;;;16.80;1.00;;;;;;5050073;28;20604;-57
2022/10/16 05:42:32;;;;;;;14.77;13.40;;;16.80;1.00;;;;;;5049338;28;20183;-57
2022/10/16 05:44:57;;;;;;;17.00;15.40;;;16.80;1.00;;;;;;5048945;28;20982;-57
2022/10/16 05:47:23;;;;;;;16.50;14.90;;;16.80;1.00;;;;;;5049304;28;20197;-58
2022/10/16 05:49:48;;;;;;;18.10;15.30;;;16.90;1.00;;;;;;5047924;28;20181;-57
2022/10/16 05:52:14;;;;;;;16.80;15.20;;;16.80;1.00;;;;;;5048707;28;20219;-58
2022/10/16 05:54:39;;;;;;;16.57;14.87;;;16.80;1.00;;;;;;5051606;28;20195;-58
2022/10/16 05:57:05;;;;;;;15.33;13.77;;;16.80;1.00;;;;;;5051065;28;20195;-58
2022/10/16 05:59:31;;;;;;;16.87;15.27;;;16.80;1.00;;;;;;5050062;28;20214;-57
2022/10/16 06:01:57;;;;;;;15.40;13.90;;;16.80;1.00;;;;;;5049936;28;20217;-57
2022/10/16 06:04:22;;;;;;;16.73;15.03;;;16.80;1.00;;;;;;5049632;28;20475;-58
2022/10/16 06:06:48;;;;;;;15.97;14.37;;;16.90;1.00;;;;;;5050296;28;20647;-58
2022/10/16 06:09:14;;;;;;;15.53;14.10;;;16.90;1.00;;;;;;5048410;28;20193;-59
2022/10/16 06:11:39;;;;;;;14.43;13.13;;;17.10;1.00;;;;;;5044998;28;20195;-57
2022/10/16 06:14:06;;;;;;;15.53;14.03;;;17.10;1.00;;;;;;5050751;28;20186;-57
2022/10/16 06:16:36;;;;;;;15.97;14.00;;;16.90;1.00;;;;;;5046369;28;20195;-58
2022/10/16 06:19:05;;;;;;;18.73;16.77;;;16.90;1.00;;;;;;5055454;28;20462;-58
2022/10/16 06:21:32;;;;;;;16.10;14.60;;;16.90;1.00;;;;;;5050584;28;20570;-57
2022/10/16 06:23:58;;;;;;;14.73;13.40;;;16.90;1.00;;;;;;5049426;28;20422;-58
2022/10/16 06:26:26;;;;;;;16.10;13.70;;;16.90;1.00;;;;;;5048310;28;20458;-57
2022/10/16 06:28:54;;;;;;;15.67;13.97;;;17.00;1.00;;;;;;5047227;28;20450;-57
2022/10/16 06:31:19;;;;;;;15.97;14.30;;;17.20;1.00;;;;;;5048564;28;20948;-57
2022/10/16 06:33:46;;;;;;;16.30;14.70;;;17.20;1.00;;;;;;5046436;28;20456;-57
2022/10/16 06:36:16;;;;;;;16.17;14.57;;;17.30;1.00;;;;;;5047956;28;20194;-58
2022/10/16 06:38:43;;;;;;;16.90;15.30;;;17.40;1.00;;;;;;5049483;28;20436;-57
2022/10/16 06:41:14;;;;;;;16.50;14.90;;;17.50;1.00;;;;;;5046122;28;20532;-58
2022/10/16 06:43:39;;;;;;;16.80;15.10;;;17.60;1.00;;;;;;5047997;28;20479;-58
2022/10/16 06:46:10;;;;;;;16.73;15.00;;;17.80;1.00;;;;;;5046223;28;20535;-57
2022/10/16 06:48:36;;;;;;;16.93;15.23;;;17.80;1.00;;;;;;5046243;28;20191;-58
2022/10/16 06:51:16;;;;;;;16.60;14.90;;;18.10;1.00;;;;;;5049383;28;21054;-58
2022/10/16 06:53:44;;;;;;;21.87;15.37;;;18.10;1.00;;;;;;5050118;28;20491;-57
2022/10/16 06:56:13;;;;;;;17.33;15.67;;;18.10;1.00;;;;;;5048370;28;20453;-58
2022/10/16 06:58:39;;;;;;;15.83;14.23;;;18.10;1.00;;;;;;5049956;28;20911;-58
2022/10/16 07:01:05;;;;;;;16.57;15.00;;;18.20;1.00;;;;;;5047783;28;20465;-58
2022/10/16 07:03:31;;;;;;;15.50;14.00;;;18.20;1.00;;;;;;5048147;28;20852;-59
2022/10/16 07:05:56;;;;;;;17.77;16.07;;;18.20;1.00;;;;;;5048827;28;20451;-58
2022/10/16 07:08:22;;;;;;;17.07;15.37;;;18.10;1.00;;;;;;5050267;28;20212;-59
2022/10/16 07:10:48;;;;;;;15.90;14.43;;;18.10;1.00;;;;;;5047227;28;20248;-59
2022/10/16 07:13:14;;;;;;;17.00;15.50;;;18.10;1.00;;;;;;5046511;28;20193;-59
2022/10/16 07:15:40;;;;;;;15.50;14.00;;;18.10;1.00;;;;;;5047858;28;20198;-58
2022/10/16 07:18:06;;;;;;;15.77;14.33;;;18.10;1.00;;;;;;5049079;28;20481;-59
2022/10/16 07:20:32;;;;;;;18.17;16.30;;;18.20;1.00;;;;;;5045681;28;20541;-59
2022/10/16 07:22:57;;;;;;;15.90;14.43;;;18.20;1.00;;;;;;5048085;28;20549;-59
2022/10/16 07:25:23;;;;;;;15.53;14.10;;;18.30;1.00;;;;;;5047726;28;20661;-59
2022/10/16 07:27:48;;;;;;;17.20;15.63;;;18.40;1.00;;;;;;5046497;28;21902;-59
2022/10/16 07:30:14;;;;;;;16.40;14.80;;;18.50;1.00;;;;;;5047638;28;20197;-59
2022/10/16 07:32:40;;;;;;;16.40;14.80;;;18.60;1.00;;;;;;5048153;28;20208;-57
2022/10/16 07:35:06;;;;;;;15.70;14.20;;;18.60;1.00;;;;;;5048633;28;20645;-57
2022/10/16 07:37:31;;;;;;;16.40;14.87;;;18.60;1.00;;;;;;5047829;28;20726;-58
2022/10/16 07:39:57;;;;;;;20.83;14.97;;;18.50;1.00;;;;;;5049827;28;20815;-58
2022/10/16 07:42:22;;;;;;;16.57;14.87;;;18.50;1.00;;;;;;5044564;28;20225;-59
2022/10/16 07:44:48;;;;;;;17.27;15.50;;;18.50;1.00;;;;;;5050102;28;20221;-57
2022/10/16 07:47:13;;;;;;;17.33;15.73;;;18.50;1.00;;;;;;5045711;28;20257;-60
2022/10/16 07:49:39;;;;;;;16.53;14.93;;;18.60;1.00;;;;;;5048941;28;20185;-57
2022/10/16 07:52:04;;;;;;;16.80;15.30;;;18.60;1.00;;;;;;5043912;28;20199;-57
2022/10/16 07:54:30;;;;;;;15.73;14.13;;;18.70;1.00;;;;;;5047738;28;20662;-58
2022/10/16 07:56:56;;;;;;;17.27;15.47;;;18.70;1.00;;;;;;5044700;28;20242;-56
2022/10/16 07:59:21;;;;;;;17.30;15.70;;;18.70;1.00;;;;;;5048522;28;20701;-57
2022/10/16 08:01:49;;;;;;;15.60;14.20;;;18.80;1.00;;;;;;5044651;28;20282;-57
2022/10/16 08:04:14;;;;;;;16.93;15.30;;;18.90;1.00;;;;;;5045489;28;20268;-58
2022/10/16 08:06:40;;;;;;;16.87;15.10;;;19.10;1.00;;;;;;5048757;28;20882;-57
2022/10/16 08:09:07;;;;;;;15.43;13.90;;;19.10;1.00;;;;;;5048542;28;20248;-58
2022/10/16 08:11:33;;;;;;;16.00;14.60;;;19.20;1.00;;;;;;5049069;28;20453;-58
2022/10/16 08:13:59;;;;;;;14.73;13.33;;;19.40;1.00;;;;;;5044321;28;20886;-57
2022/10/16 08:16:24;;;;;;;16.33;14.77;;;19.50;1.00;;;;;;5048230;28;20523;-58
2022/10/16 08:18:51;;;;;;;14.57;13.17;;;19.60;1.00;;;;;;5044070;28;20223;-58
2022/10/16 08:21:19;;;;;;;15.80;14.30;;;19.70;1.00;;;;;;5056621;28;20251;-58
2022/10/16 08:23:45;;;;;;;14.13;12.87;;;20.00;1.00;;;;;;5051746;28;20471;-58
2022/10/16 08:26:12;;;;;;;13.80;12.50;;;19.90;1.00;;;;;;5052411;28;20879;-58
2022/10/16 08:28:38;;;;;;;14.33;12.90;;;19.90;1.00;;;;;;5053990;28;20562;-58
2022/10/16 08:31:12;;;;;;;12.97;11.87;;;19.80;1.00;;;;;;5052597;28;20451;-57
2022/10/16 08:33:40;;;;;;;13.30;12.20;;;19.80;1.00;;;;;;5062032;28;20957;-58
2022/10/16 08:36:06;;;;;;;13.47;12.30;;;19.80;1.00;;;;;;5053482;28;20459;-57
2022/10/16 08:38:32;;;;;;;13.50;12.30;;;19.90;1.00;;;;;;5051985;28;20876;-58
2022/10/16 08:41:08;;;;;;;11.93;10.83;;;20.00;1.00;;;;;;5051552;28;20271;-57
2022/10/16 08:43:55;;;;;;;11.70;10.70;;;20.10;1.00;;;;;;5058014;28;20486;-56
2022/10/16 08:46:24;;;;;;;12.13;11.03;;;20.20;1.00;;;;;;5050397;28;20463;-59
2022/10/16 08:48:52;;;;;;;12.17;11.17;;;20.20;1.00;;;;;;5052880;28;20506;-59
2022/10/16 08:51:31;;;;;;;11.30;10.37;;;20.20;1.00;;;;;;5055404;28;20448;-58
2022/10/16 08:54:01;;;;;;;10.37;9.37;;;20.30;1.00;;;;;;5052091;28;20516;-57
2022/10/16 08:56:27;;;;;;;11.47;10.27;;;20.30;1.00;;;;;;5053161;28;20431;-57
2022/10/16 08:58:54;;;;;;;10.07;9.17;;;20.40;1.00;;;;;;5051817;28;20447;-57
2022/10/16 09:01:22;;;;;;;9.97;9.07;;;20.70;1.00;;;;;;5052551;28;20194;-57
2022/10/16 09:03:51;;;;;;;10.53;9.53;;;21.10;1.00;;;;;;5073296;28;20779;-58
2022/10/16 09:06:42;;;;;;;10.53;9.53;;;21.20;1.00;;;;;;5052029;28;20795;-59
2022/10/16 09:09:36;;;;;;;9.33;8.53;;;21.10;1.00;;;;;;5047870;28;20444;-58
2022/10/16 09:12:20;;;;;;;9.50;8.70;;;21.10;1.00;;;;;;5051722;28;20451;-57
2022/10/16 09:15:21;;;;;;;10.67;9.77;;;21.30;1.00;;;;;;5052519;28;21735;-57
2022/10/16 09:18:01;;;;;;;9.87;9.07;;;21.50;1.00;;;;;;5048935;28;20441;-58
2022/10/16 09:20:36;;;;;;;9.50;8.80;;;21.60;1.00;;;;;;5057107;28;20418;-58
2022/10/16 09:23:05;;;;;;;9.97;9.07;;;21.60;1.00;;;;;;5048932;28;20451;-57
2022/10/16 09:25:32;;;;;;;9.23;8.53;;;21.50;1.00;;;;;;5051029;28;20428;-59
2022/10/16 09:27:58;;;;;;;9.70;8.90;;;21.70;1.00;;;;;;5052589;28;20451;-58
2022/10/16 09:30:28;;;;;;;9.60;8.80;;;21.90;1.00;;;;;;5061942;28;20415;-59
2022/10/16 09:32:54;;;;;;;8.53;7.93;;;22.30;1.00;;;;;;5061035;28;20536;-58
2022/10/16 09:35:24;;;;;;;9.93;8.97;;;22.50;1.00;;;;;;5060562;28;20577;-59
2022/10/16 09:37:53;;;;;;;9.83;9.03;;;22.40;1.00;;;;;;5066299;28;20535;-58
2022/10/16 09:40:31;;;;;;;9.90;9.10;;;22.20;1.00;;;;;;5046489;28;20491;-58
2022/10/16 09:43:22;;;;;;;9.87;9.07;;;22.10;1.00;;;;;;5058304;28;20853;-58
2022/10/16 09:45:59;;;;;;;8.50;7.77;;;22.30;1.00;;;;;;5050127;28;20574;-57
2022/10/16 09:48:36;;;;;;;7.83;7.23;;;22.30;1.00;;;;;;5058392;28;20864;-57
2022/10/16 09:51:05;;;;;;;7.30;6.70;;;22.40;1.00;;;;;;5052923;28;20452;-57
2022/10/16 09:53:46;;;;;;;6.80;6.23;;;22.40;1.00;;;;;;5053573;28;20478;-57
2022/10/16 09:56:28;;;;;;;6.40;5.80;;;22.40;1.00;;;;;;5051359;28;20422;-58
2022/10/16 09:59:00;;;;;;;6.30;5.80;;;22.50;1.00;;;;;;5047082;28;20470;-57
2022/10/16 10:01:37;;;;;;;6.33;5.83;;;22.60;1.00;;;;;;5056320;28;20454;-58
2022/10/16 10:04:03;;;;;;;5.50;5.10;;;22.90;1.00;;;;;;5052010;28;20462;-57
2022/10/16 10:06:33;;;;;;;5.47;4.93;;;23.10;1.00;;;;;;5064277;28;20445;-58
2022/10/16 10:09:06;;;;;;;5.97;5.57;;;23.40;1.00;;;;;;5051342;28;20447;-57
2022/10/16 10:11:57;;;;;;;5.37;4.20;;;23.60;1.00;;;;;;5053713;28;20543;-57
2022/10/16 10:14:26;;;;;;;5.10;4.70;;;23.50;1.00;;;;;;5050846;28;20473;-58
2022/10/16 10:17:26;;;;;;;4.53;4.23;;;23.40;1.00;;;;;;5048989;28;20447;-58
2022/10/16 10:19:55;;;;;;;5.27;4.77;;;23.10;1.00;;;;;;5051885;28;20526;-58
2022/10/16 10:22:30;;;;;;;5.20;4.80;;;23.10;1.00;;;;;;5071862;28;20544;-58
2022/10/16 10:25:08;;;;;;;4.10;3.80;;;23.30;1.00;;;;;;5057059;28;20472;-57
2022/10/16 10:27:48;;;;;;;4.97;4.57;;;23.20;1.00;;;;;;5051085;28;20518;-57
2022/10/16 10:30:32;;;;;;;5.20;4.70;;;23.20;1.00;;;;;;5053485;28;20410;-59
2022/10/16 10:33:18;;;;;;;3.90;3.50;;;23.40;1.00;;;;;;5052129;28;20428;-57
2022/10/16 10:35:55;;;;;;;4.40;4.00;;;23.70;1.00;;;;;;5046604;28;20453;-58
2022/10/16 10:38:58;;;;;;;5.40;3.70;;;23.90;1.00;;;;;;5059305;28;20938;-57
2022/10/16 10:41:29;;;;;;;1.40;1.17;;;24.30;1.00;;;;;;5052952;28;20916;-58
2022/10/16 10:44:25;;;;;;;1.00;0.87;;;24.70;1.00;;;;;;5049017;28;20477;-58
2022/10/16 10:47:23;;;;;;;1.53;0.83;;;24.80;1.00;;;;;;5059594;28;20437;-57
2022/10/16 10:49:51;;;;;;;1.13;0.90;;;24.80;1.00;;;;;;5056240;28;20464;-58
2022/10/16 10:52:33;;;;;;;1.30;0.77;;;24.70;1.00;;;;;;5058634;28;20432;-58
2022/10/16 10:55:20;;;;;;;1.93;0.70;;;24.40;1.00;;;;;;5058262;28;20874;-58
2022/10/16 10:58:10;;;;;;;1.10;0.80;;;24.30;1.00;;;;;;5058278;28;20450;-58
2022/10/16 11:00:59;;;;;;;1.57;1.00;;;24.70;1.00;;;;;;5060053;28;20457;-59
2022/10/16 11:03:54;;;;;;;0.70;0.70;;;24.60;1.00;;;;;;5056307;28;20443;-57
2022/10/16 11:06:46;;;;;;;1.87;0.80;;;24.60;1.00;;;;;;5049039;28;20529;-57
2022/10/16 11:09:28;;;;;;;1.33;0.83;;;24.60;1.00;;;;;;5050493;28;20450;-58
2022/10/16 11:12:19;;;;;;;0.80;0.70;;;24.60;1.00;;;;;;5057023;28;20941;-57
2022/10/16 11:14:48;;;;;;;1.50;0.77;;;24.30;1.00;;;;;;5057508;28;20475;-57
2022/10/16 11:17:31;;;;;;;0.90;0.80;;;24.00;1.00;;;;;;5053896;28;20532;-58
2022/10/16 11:20:20;;;;;;;2.83;0.70;;;23.90;1.00;;;;;;5049096;28;20453;-57
2022/10/16 11:22:49;;;;;;;1.30;0.70;;;23.80;1.00;;;;;;5055972;28;20455;-58
2022/10/16 11:25:31;;;;;;;1.67;1.03;;;23.90;1.00;;;;;;5061011;28;20445;-57
2022/10/16 11:28:17;;;;;;;0.70;0.53;;;24.30;1.00;;;;;;5053612;28;20441;-58
2022/10/16 11:31:09;;;;;;;1.07;0.83;;;24.70;1.00;;;;;;5053403;28;20481;-64
2022/10/16 11:33:44;;;;;;;0.70;0.70;;;24.70;1.00;;;;;;5057984;28;20537;-60
2022/10/16 11:36:35;;;;;;;0.70;0.67;;;24.30;1.00;;;;;;5051700;28;20948;-60
2022/10/16 11:39:04;;;;;;;0.83;0.73;;;23.90;1.00;;;;;;5056848;28;20465;-59
2022/10/16 11:41:42;;;;;;;1.33;0.63;;;23.80;1.00;;;;;;5052880;28;21031;-60
2022/10/16 11:44:27;;;;;;;1.10;0.73;;;23.60;1.00;;;;;;5052711;28;20860;-60
2022/10/16 11:47:12;;;;;;;1.10;1.00;;;23.70;1.00;;;;;;5055178;28;20987;-61
2022/10/16 11:49:40;;;;;;;1.27;0.67;;;23.70;1.00;;;;;;5056700;28;20424;-60
2022/10/16 11:52:28;;;;;;;2.20;1.00;;;23.80;1.00;;;;;;5047847;28;20448;-60
2022/10/16 11:54:59;;;;;;;0.90;0.67;;;23.90;1.00;;;;;;5050699;28;20953;-59
2022/10/16 11:57:29;;;;;;;1.37;0.77;;;23.90;1.00;;;;;;5047419;28;20509;-60
2022/10/16 12:00:05;;;;;;;2.00;0.60;;;24.00;1.00;;;;;;5053161;28;20518;-60
2022/10/16 12:02:40;;;;;;;0.90;0.80;;;24.10;1.00;;;;;;5050454;28;20456;-60
2022/10/16 12:05:35;;;;;;;1.80;0.80;;;24.20;1.00;;;;;;5051145;28;20472;-59
2022/10/16 12:08:11;;;;;;;0.90;0.70;;;24.30;1.00;;;;;;5049309;28;21002;-60
2022/10/16 12:10:38;;;;;;;0.97;0.70;;;24.30;1.00;;;;;;5049240;28;20441;-60
2022/10/16 12:13:28;;;;;;;1.53;0.70;;;24.30;1.00;;;;;;5052406;28;21124;-60
2022/10/16 12:16:24;;;;;;;1.20;0.80;;;24.40;1.00;;;;;;5050467;28;20784;-61
2022/10/16 12:19:02;;;;;;;2.70;0.73;;;24.40;1.00;;;;;;5053507;28;20526;-59
2022/10/16 12:21:31;;;;;;;0.70;0.70;;;24.50;1.00;;;;;;5050340;28;20424;-60
2022/10/16 12:24:04;;;;;;;1.77;0.70;;;24.30;1.00;;;;;;5052720;28;20965;-60
2022/10/16 12:26:33;;;;;;;1.93;0.60;;;24.30;1.00;;;;;;5050751;28;20416;-59
2022/10/16 12:29:35;;;;;;;0.83;0.67;;;24.20;1.00;;;;;;5053449;28;20430;-59
2022/10/16 12:32:04;;;;;;;1.43;0.87;;;24.20;1.00;;;;;;5051532;28;20914;-60
2022/10/16 12:34:42;;;;;;;1.03;0.80;;;24.10;1.00;;;;;;5073149;28;20438;-60
2022/10/16 12:37:18;;;;;;;1.10;0.87;;;23.90;1.00;;;;;;5063066;28;20437;-59
2022/10/16 12:39:44;;;;;;;0.90;0.77;;;23.70;1.00;;;;;;5059162;28;20472;-60
2022/10/16 12:42:26;;;;;;;2.10;1.10;;;23.90;1.00;;;;;;5052721;28;20466;-60
2022/10/16 12:44:54;;;;;;;0.80;0.70;;;24.10;1.00;;;;;;5049781;28;20659;-59
2022/10/16 12:47:34;;;;;;;1.00;0.90;;;24.20;1.00;;;;;;5063278;28;20454;-60
2022/10/16 12:50:00;;;;;;;1.77;1.10;;;24.20;1.00;;;;;;5053194;28;20440;-60
2022/10/16 12:52:44;;;;;;;1.93;1.00;;;24.30;1.00;;;;;;5051563;28;20467;-61
2022/10/16 12:55:17;;;;;;;0.80;0.70;;;24.80;1.00;;;;;;5051599;28;20546;-60
2022/10/16 12:58:03;;;;;;;0.80;0.80;;;25.30;1.00;;;;;;5051423;28;20432;-59
2022/10/16 13:00:40;;;;;;;1.50;0.87;;;25.30;1.00;;;;;;5064515;28;20484;-60
2022/10/16 13:03:57;;;;;;;1.40;0.70;;;24.80;1.00;;;;;;5060507;28;20973;-60